createdAt,value
2019-05-20T00:02:28.455Z,14.00
2019-05-20T00:04:58.996Z,14.00
2019-05-20T00:07:29.258Z,13.90
2019-05-20T00:09:59.504Z,13.90
2019-05-20T00:12:30.076Z,13.90
2019-05-20T00:15:00.347Z,13.90
2019-05-20T00:17:30.615Z,14.00
2019-05-20T00:20:00.901Z,14.00
2019-05-20T00:22:31.166Z,14.00
2019-05-20T00:25:01.424Z,14.10
2019-05-20T00:27:31.709Z,14.10
2019-05-20T00:30:01.966Z,14.10
2019-05-20T00:32:41.021Z,14.00
2019-05-20T00:35:06.556Z,14.00
2019-05-20T00:37:37.112Z,14.00
2019-05-20T00:40:08.329Z,13.90
2019-05-20T00:42:38.620Z,13.90
2019-05-20T00:45:08.875Z,13.90
2019-05-20T00:47:39.179Z,13.90
2019-05-20T00:50:09.475Z,14.00
2019-05-20T00:52:40.027Z,14.00
2019-05-20T00:55:23.481Z,14.00
2019-05-20T00:57:53.766Z,14.00
2019-05-20T01:00:24.200Z,13.90
2019-05-20T01:02:57.147Z,13.80
2019-05-20T01:05:26.465Z,13.70
2019-05-20T01:07:56.752Z,13.70
2019-05-20T01:10:27.019Z,13.80
2019-05-20T01:12:57.308Z,13.80
2019-05-20T01:15:27.598Z,13.70
2019-05-20T01:17:57.880Z,13.70
2019-05-20T01:20:28.187Z,13.60
2019-05-20T01:22:58.431Z,13.60
2019-05-20T01:25:28.725Z,13.60
2019-05-20T01:27:59.047Z,13.50
2019-05-20T01:30:29.316Z,13.50
2019-05-20T01:33:12.703Z,13.50
2019-05-20T01:35:31.539Z,13.40
2019-05-20T01:38:01.804Z,13.30
2019-05-20T01:40:32.090Z,13.30
2019-05-20T01:43:02.341Z,13.30
2019-05-20T01:45:32.607Z,13.20
2019-05-20T01:48:02.908Z,13.10
2019-05-20T01:50:33.208Z,13.20
2019-05-20T01:53:03.777Z,13.30
2019-05-20T01:55:34.022Z,13.30
2019-05-20T01:58:04.310Z,13.30
2019-05-20T02:00:34.586Z,13.40
2019-05-20T02:03:04.835Z,13.40
2019-05-20T02:05:35.100Z,13.40
2019-05-20T02:08:05.358Z,13.40
2019-05-20T02:10:35.650Z,13.50
2019-05-20T02:13:05.936Z,13.50
2019-05-20T02:15:40.515Z,13.50
2019-05-20T02:18:10.807Z,13.50
2019-05-20T02:20:41.085Z,13.50
2019-05-20T02:23:17.376Z,13.50
2019-05-20T02:25:49.347Z,13.40
2019-05-20T02:28:19.611Z,13.30
2019-05-20T02:30:49.872Z,13.30
2019-05-20T02:33:20.160Z,13.30
2019-05-20T02:35:50.468Z,13.30
2019-05-20T02:38:20.740Z,13.20
2019-05-20T02:40:50.995Z,13.10
2019-05-20T02:43:21.254Z,13.00
2019-05-20T02:45:51.551Z,12.90
2019-05-20T02:48:21.843Z,12.90
2019-05-20T02:50:52.196Z,13.00
2019-05-20T02:53:22.473Z,13.00
2019-05-20T02:55:52.728Z,12.90
2019-05-20T02:58:22.995Z,12.90
2019-05-20T03:00:53.287Z,12.90
2019-05-20T03:03:23.574Z,12.90
2019-05-20T03:05:53.871Z,12.90
2019-05-20T03:08:24.148Z,12.90
2019-05-20T03:10:54.705Z,13.00
2019-05-20T03:13:24.986Z,13.00
2019-05-20T03:15:55.242Z,13.00
2019-05-20T03:18:25.577Z,13.00
2019-05-20T03:20:55.939Z,12.90
2019-05-20T03:23:26.244Z,13.00
2019-05-20T03:25:56.512Z,13.00
2019-05-20T03:28:26.758Z,13.00
2019-05-20T03:30:57.047Z,13.10
2019-05-20T03:33:27.330Z,13.10
2019-05-20T03:35:57.587Z,13.20
2019-05-20T03:38:27.882Z,13.30
2019-05-20T03:40:58.306Z,13.30
2019-05-20T03:43:28.570Z,13.40
2019-05-20T03:45:58.853Z,13.50
2019-05-20T03:48:29.153Z,13.50
2019-05-20T03:50:59.665Z,13.60
2019-05-20T03:53:29.939Z,13.70
2019-05-20T03:56:00.236Z,13.70
2019-05-20T03:58:32.202Z,13.90
2019-05-20T04:01:02.467Z,13.90
2019-05-20T04:03:32.720Z,14.00
2019-05-20T04:06:02.997Z,14.10
2019-05-20T04:08:33.266Z,14.20
2019-05-20T04:11:03.525Z,14.20
2019-05-20T04:13:34.818Z,14.30
2019-05-20T04:16:05.468Z,14.30
2019-05-20T04:18:35.774Z,14.40
2019-05-20T04:21:06.045Z,14.40
2019-05-20T04:23:36.331Z,14.60
2019-05-20T04:26:06.654Z,14.60
2019-05-20T04:28:36.916Z,14.70
2019-05-20T04:31:07.660Z,14.80
2019-05-20T04:33:37.958Z,14.90
2019-05-20T04:36:08.277Z,15.00
2019-05-20T04:38:38.589Z,15.10
2019-05-20T04:41:08.831Z,15.20
2019-05-20T04:43:39.091Z,15.30
2019-05-20T04:46:09.383Z,15.40
2019-05-20T04:48:39.671Z,15.50
2019-05-20T04:51:09.976Z,15.60
2019-05-20T04:53:40.244Z,15.70
2019-05-20T04:56:10.537Z,15.70
2019-05-20T04:58:40.821Z,15.70
2019-05-20T05:01:11.084Z,15.70
2019-05-20T05:03:41.347Z,15.70
2019-05-20T05:06:11.631Z,15.80
2019-05-20T05:08:42.579Z,15.80
2019-05-20T05:11:12.834Z,15.90
2019-05-20T05:13:43.124Z,15.80
2019-05-20T05:16:13.414Z,15.80
2019-05-20T05:18:43.699Z,15.80
2019-05-20T05:21:13.990Z,15.80
2019-05-20T05:23:58.353Z,15.90
2019-05-20T05:26:16.223Z,16.10
2019-05-20T05:28:46.476Z,16.30
2019-05-20T05:31:16.728Z,16.50
2019-05-20T05:33:47.087Z,16.70
2019-05-20T05:36:17.328Z,17.10
2019-05-20T05:38:48.417Z,17.40
2019-05-20T05:41:18.697Z,17.80
2019-05-20T05:43:48.951Z,17.90
2019-05-20T05:46:19.246Z,18.10
2019-05-20T05:48:49.497Z,18.10
2019-05-20T05:51:19.768Z,17.90
2019-05-20T05:53:50.062Z,17.70
2019-05-20T05:56:20.333Z,17.70
2019-05-20T05:58:50.635Z,17.60
2019-05-20T06:01:20.920Z,17.80
2019-05-20T06:03:51.168Z,17.90
2019-05-20T06:06:21.427Z,17.90
2019-05-20T06:08:51.792Z,17.90
2019-05-20T06:11:22.043Z,18.00
2019-05-20T06:13:52.307Z,18.10
2019-05-20T06:16:35.889Z,18.30
2019-05-20T06:18:54.846Z,18.50
2019-05-20T06:21:25.106Z,18.70
2019-05-20T06:23:55.442Z,18.90
2019-05-20T06:26:25.678Z,19.10
2019-05-20T06:28:56.006Z,19.20
2019-05-20T06:31:26.267Z,19.40
2019-05-20T06:33:56.559Z,19.40
2019-05-20T06:36:27.426Z,19.60
2019-05-20T06:39:15.544Z,19.60
2019-05-20T06:41:45.798Z,19.40
2019-05-20T06:44:16.061Z,19.50
2019-05-20T06:46:46.783Z,19.60
2019-05-20T06:49:17.074Z,19.60
2019-05-20T06:51:47.326Z,19.60
2019-05-20T06:54:17.765Z,19.40
2019-05-20T06:56:48.610Z,19.50
2019-05-20T06:59:19.395Z,19.50
2019-05-20T07:01:49.650Z,19.50
2019-05-20T07:04:19.901Z,19.40
2019-05-20T07:06:50.502Z,19.40
2019-05-20T07:09:20.762Z,19.40
2019-05-20T07:11:53.127Z,19.40
2019-05-20T07:14:23.017Z,19.50
2019-05-20T07:16:53.307Z,19.60
2019-05-20T07:19:23.577Z,19.60
2019-05-20T07:21:53.855Z,19.80
2019-05-20T07:24:24.146Z,19.90
2019-05-20T07:26:54.426Z,19.90
2019-05-20T07:29:24.705Z,19.90
2019-05-20T07:31:55.018Z,19.90
2019-05-20T07:34:25.274Z,20.00
2019-05-20T07:37:03.123Z,20.00
2019-05-20T07:39:27.573Z,20.10
2019-05-20T07:41:57.827Z,20.20
2019-05-20T07:44:28.109Z,20.50
2019-05-20T07:46:58.405Z,20.70
2019-05-20T07:49:28.747Z,20.70
2019-05-20T07:51:59.022Z,20.80
2019-05-20T07:54:29.298Z,20.70
2019-05-20T07:57:03.109Z,20.90
2019-05-20T07:59:33.405Z,21.10
2019-05-20T08:02:03.649Z,21.30
2019-05-20T08:04:33.988Z,21.30
2019-05-20T08:07:26.026Z,21.50
2019-05-20T08:09:44.670Z,21.80
2019-05-20T08:12:08.256Z,21.80
2019-05-20T08:14:38.562Z,21.90
2019-05-20T08:17:08.810Z,22.00
2019-05-20T08:19:39.165Z,21.90
2019-05-20T08:22:09.466Z,21.90
2019-05-20T08:24:39.746Z,21.80
2019-05-20T08:27:09.994Z,21.80
2019-05-20T08:29:40.280Z,22.00
2019-05-20T08:32:10.561Z,22.00
2019-05-20T08:34:40.947Z,22.00
2019-05-20T08:37:11.203Z,22.10
2019-05-20T08:39:41.460Z,22.20
2019-05-20T08:42:11.742Z,22.30
2019-05-20T08:44:42.031Z,22.20
2019-05-20T08:47:12.298Z,22.30
2019-05-20T08:49:43.546Z,22.50
2019-05-20T08:52:14.537Z,22.60
2019-05-20T08:54:44.807Z,22.60
2019-05-20T08:57:15.095Z,22.80
2019-05-20T08:59:45.419Z,22.60
2019-05-20T09:02:15.695Z,22.70
2019-05-20T09:04:45.995Z,22.80
2019-05-20T09:07:15.354Z,23.10
2019-05-20T09:09:46.145Z,23.30
2019-05-20T09:12:16.402Z,23.40
2019-05-20T09:14:46.642Z,23.40
2019-05-20T09:17:16.890Z,23.60
2019-05-20T09:19:47.433Z,23.70
2019-05-20T09:22:17.872Z,23.70
2019-05-20T09:24:48.303Z,23.70
2019-05-20T09:27:18.821Z,23.80
2019-05-20T09:29:49.067Z,24.40
2019-05-20T09:32:19.344Z,24.90
2019-05-20T09:34:49.920Z,25.20
2019-05-20T09:37:20.190Z,25.20
2019-05-20T09:39:50.449Z,25.20
2019-05-20T09:42:20.724Z,25.20
2019-05-20T09:44:50.952Z,25.30
2019-05-20T09:47:21.571Z,25.20
2019-05-20T09:49:51.868Z,25.10
2019-05-20T09:52:22.152Z,25.00
2019-05-20T09:54:52.480Z,25.00
2019-05-20T09:57:24.771Z,25.10
2019-05-20T09:59:55.047Z,25.20
2019-05-20T10:02:35.092Z,25.20
2019-05-20T10:04:57.319Z,24.90
2019-05-20T10:07:27.959Z,24.80
2019-05-20T10:09:58.206Z,24.80
2019-05-20T10:12:44.636Z,24.80
2019-05-20T10:15:00.430Z,24.80
2019-05-20T10:17:30.704Z,24.80
2019-05-20T10:20:01.031Z,24.90
2019-05-20T10:22:31.330Z,25.00
2019-05-20T10:25:01.711Z,25.20
2019-05-20T10:27:32.052Z,25.20
2019-05-20T10:30:02.321Z,25.30
2019-05-20T10:32:32.599Z,25.50
2019-05-20T10:35:03.111Z,25.60
2019-05-20T10:37:33.465Z,25.40
2019-05-20T10:40:04.102Z,25.30
2019-05-20T10:42:34.358Z,25.20
2019-05-20T10:45:05.003Z,25.30
2019-05-20T10:47:35.430Z,25.40
2019-05-20T10:50:07.537Z,25.60
2019-05-20T10:52:37.827Z,25.80
2019-05-20T10:55:09.108Z,25.90
2019-05-20T10:57:39.384Z,25.90
2019-05-20T11:00:09.657Z,25.90
2019-05-20T11:02:39.899Z,25.90
2019-05-20T11:05:10.356Z,26.10
2019-05-20T11:07:40.629Z,26.30
2019-05-20T11:10:11.730Z,26.60
2019-05-20T11:12:42.017Z,27.10
2019-05-20T11:15:12.625Z,27.70
2019-05-20T11:17:42.882Z,28.00
2019-05-20T11:20:13.217Z,28.20
2019-05-20T11:22:43.487Z,27.60
2019-05-20T11:25:13.731Z,27.20
2019-05-20T11:27:45.723Z,26.70
2019-05-20T11:30:16.008Z,26.40
2019-05-20T11:32:46.619Z,26.10
2019-05-20T11:35:19.544Z,26.00
2019-05-20T11:37:49.816Z,26.00
2019-05-20T11:40:21.374Z,26.00
2019-05-20T11:42:51.696Z,25.80
2019-05-20T11:45:21.982Z,25.60
2019-05-20T11:47:52.300Z,25.50
2019-05-20T11:50:22.568Z,25.40
2019-05-20T11:52:52.864Z,25.20
2019-05-20T11:55:23.108Z,25.10
2019-05-20T11:57:53.340Z,25.10
2019-05-20T12:00:23.619Z,25.30
2019-05-20T12:02:53.919Z,25.60
2019-05-20T12:05:24.210Z,25.90
2019-05-20T12:07:54.477Z,26.20
2019-05-20T12:10:24.713Z,26.50
2019-05-20T12:12:54.963Z,26.80
2019-05-20T12:15:26.208Z,27.30
2019-05-20T12:17:56.461Z,27.80
2019-05-20T12:20:26.712Z,28.10
2019-05-20T12:22:56.978Z,27.90
2019-05-20T12:25:27.334Z,27.90
2019-05-20T12:27:57.587Z,28.00
2019-05-20T12:30:27.864Z,28.20
2019-05-20T12:33:17.047Z,28.00
2019-05-20T12:35:30.049Z,28.00
2019-05-20T12:38:00.547Z,28.60
2019-05-20T12:40:30.827Z,28.60
2019-05-20T12:43:01.068Z,28.00
2019-05-20T12:45:31.679Z,27.20
2019-05-20T12:48:01.959Z,26.80
2019-05-20T12:50:32.253Z,26.70
2019-05-20T12:53:02.536Z,26.50
2019-05-20T12:55:32.807Z,26.50
2019-05-20T12:58:03.098Z,26.90
2019-05-20T13:00:33.405Z,27.30
2019-05-20T13:03:03.681Z,27.60
2019-05-20T13:05:33.937Z,27.70
2019-05-20T13:08:04.936Z,28.00
2019-05-20T13:10:35.365Z,28.60
2019-05-20T13:13:05.638Z,28.80
2019-05-20T13:15:35.878Z,28.60
2019-05-20T13:18:06.157Z,28.00
2019-05-20T13:20:36.399Z,27.90
2019-05-20T13:23:09.827Z,28.00
2019-05-20T13:25:38.925Z,28.20
2019-05-20T13:28:09.194Z,28.70
2019-05-20T13:30:39.567Z,28.80
2019-05-20T13:33:09.943Z,28.30
2019-05-20T13:35:40.235Z,27.90
2019-05-20T13:38:10.484Z,27.30
2019-05-20T13:40:46.431Z,26.60
2019-05-20T13:43:12.726Z,25.90
2019-05-20T13:45:43.010Z,25.40
2019-05-20T13:48:13.249Z,24.90
2019-05-20T13:50:43.879Z,24.40
2019-05-20T13:53:14.158Z,24.10
2019-05-20T13:55:44.439Z,23.90
2019-05-20T13:58:14.710Z,23.80
2019-05-20T14:00:44.951Z,23.80
2019-05-20T14:03:15.206Z,23.70
2019-05-20T14:05:45.478Z,23.50
2019-05-20T14:08:15.751Z,23.30
2019-05-20T14:11:02.476Z,23.20
2019-05-20T14:13:18.004Z,23.10
2019-05-20T14:15:48.267Z,23.00
2019-05-20T14:18:18.508Z,22.90
2019-05-20T14:20:48.787Z,22.80
2019-05-20T14:23:19.030Z,22.70
2019-05-20T14:25:49.324Z,22.50
2019-05-20T14:28:19.593Z,22.30
2019-05-20T14:30:49.876Z,22.20
2019-05-20T14:33:20.125Z,22.20
2019-05-20T14:35:50.449Z,22.10
2019-05-20T14:38:21.372Z,22.00
2019-05-20T14:40:51.705Z,21.90
2019-05-20T14:43:22.062Z,21.80
2019-05-20T14:45:52.328Z,21.70
2019-05-20T14:48:22.594Z,21.50
2019-05-20T14:50:52.859Z,21.30
2019-05-20T14:53:23.100Z,21.20
2019-05-20T14:55:53.355Z,21.00
2019-05-20T14:58:23.644Z,20.80
2019-05-20T15:00:53.896Z,20.70
2019-05-20T15:03:24.291Z,20.50
2019-05-20T17:29:37.183Z,20.70
2019-05-20T17:32:09.066Z,20.20
2019-05-20T17:34:39.551Z,19.60
2019-05-20T17:37:09.814Z,19.40
2019-05-20T17:39:40.075Z,19.70
2019-05-20T17:42:10.410Z,19.50
2019-05-20T17:44:40.666Z,19.20
2019-05-20T17:47:10.972Z,19.10
2019-05-20T17:49:41.267Z,19.40
2019-05-20T17:52:11.609Z,19.40
2019-05-20T17:54:41.861Z,19.40
2019-05-20T17:57:12.111Z,19.20
2019-05-20T17:59:42.377Z,18.90
2019-05-20T18:02:13.238Z,18.80
2019-05-20T18:04:43.526Z,18.80
2019-05-20T18:07:13.821Z,18.70
2019-05-20T18:09:46.073Z,18.80
2019-05-20T18:12:16.365Z,18.80
2019-05-20T18:14:48.289Z,18.70
2019-05-20T18:17:18.609Z,18.40
2019-05-20T18:19:48.886Z,18.20
2019-05-20T18:22:19.195Z,18.10
2019-05-20T18:24:49.719Z,18.00
2019-05-20T18:27:20.057Z,18.00
2019-05-20T18:29:50.287Z,17.90
2019-05-20T18:32:20.802Z,17.90
2019-05-20T18:34:51.058Z,17.80
2019-05-20T18:37:21.324Z,17.70
2019-05-20T18:39:51.586Z,17.50
2019-05-20T18:42:21.881Z,17.50
2019-05-20T18:44:52.155Z,17.40
2019-05-20T18:47:22.435Z,17.40
2019-05-20T18:49:52.709Z,17.30
2019-05-20T18:52:23.432Z,17.30
2019-05-20T18:54:53.693Z,17.30
2019-05-20T18:57:23.959Z,17.20
2019-05-20T18:59:54.235Z,17.20
2019-05-20T19:02:24.521Z,17.20
2019-05-20T19:04:54.830Z,17.30
2019-05-20T19:07:25.158Z,17.30
2019-05-20T19:09:55.427Z,17.30
2019-05-20T19:12:25.738Z,17.30
2019-05-20T19:14:56.137Z,17.40
2019-05-20T19:17:26.482Z,17.40
2019-05-20T19:19:56.729Z,17.40
2019-05-20T19:22:27.041Z,17.40
2019-05-20T19:24:57.330Z,17.30
2019-05-20T19:27:27.896Z,17.10
2019-05-20T19:29:58.180Z,16.90
2019-05-20T19:32:28.441Z,16.80
2019-05-20T19:34:58.771Z,16.80
2019-05-20T19:37:29.090Z,16.90
2019-05-20T19:39:59.344Z,16.90
2019-05-20T19:42:29.673Z,16.90
2019-05-20T19:44:59.982Z,16.80
2019-05-20T19:47:30.255Z,16.60
2019-05-20T19:50:00.586Z,16.50
2019-05-20T19:52:30.915Z,16.30
2019-05-20T19:55:01.423Z,16.20
2019-05-20T19:57:31.782Z,16.20
2019-05-20T20:00:02.089Z,16.10
2019-05-20T20:02:32.335Z,16.00
2019-05-20T20:05:03.434Z,15.90
2019-05-20T20:07:33.753Z,15.90
2019-05-20T20:10:04.750Z,15.90
2019-05-20T20:12:35.004Z,15.90
2019-05-20T20:15:20.809Z,15.90
2019-05-20T20:17:51.343Z,15.90
2019-05-20T20:20:21.599Z,15.90
2019-05-20T20:22:51.861Z,15.90
2019-05-20T20:25:22.172Z,16.00
2019-05-20T20:27:52.565Z,16.10
2019-05-20T20:30:22.818Z,16.20
2019-05-20T20:32:53.120Z,16.20
2019-05-20T20:35:37.218Z,16.20
2019-05-20T20:37:56.008Z,16.30
2019-05-20T20:40:26.263Z,16.30
2019-05-20T20:42:56.541Z,16.20
2019-05-20T20:45:26.876Z,16.10
2019-05-20T20:47:57.446Z,16.10
2019-05-20T20:50:27.726Z,16.10
2019-05-20T20:52:58.652Z,16.00
2019-05-20T20:55:28.932Z,16.00
2019-05-20T20:57:59.264Z,16.00
2019-05-20T21:00:29.574Z,15.90
2019-05-20T21:02:59.872Z,15.80
2019-05-20T21:05:30.170Z,15.70
2019-05-20T21:08:00.457Z,15.60
2019-05-20T21:10:30.748Z,15.50
2019-05-20T21:13:00.997Z,15.40
2019-05-20T21:15:31.301Z,15.20
2019-05-20T21:18:01.553Z,15.10
2019-05-20T21:20:31.836Z,15.00
2019-05-20T21:23:02.097Z,14.90
2019-05-20T21:25:32.465Z,14.80
2019-05-20T21:28:02.753Z,14.70
2019-05-20T21:30:33.038Z,14.60
2019-05-20T21:33:09.207Z,14.50
2019-05-20T21:35:35.224Z,14.40
2019-05-20T21:38:05.516Z,14.30
2019-05-20T21:40:35.775Z,14.30
2019-05-20T21:43:06.082Z,14.20
2019-05-20T21:45:36.446Z,14.20
2019-05-20T21:48:06.757Z,14.10
2019-05-20T21:50:37.021Z,14.10
2019-05-20T21:53:07.284Z,14.10
2019-05-20T21:55:37.568Z,14.10
2019-05-20T21:58:07.836Z,14.10
2019-05-20T22:00:42.634Z,14.10
2019-05-20T22:03:23.948Z,14.10
2019-05-20T22:05:45.508Z,14.00
2019-05-20T22:08:15.761Z,13.90
2019-05-20T22:10:46.116Z,13.90
2019-05-20T22:13:16.376Z,13.90
2019-05-20T22:15:46.698Z,13.80
2019-05-20T22:18:16.979Z,13.80
2019-05-20T22:20:47.311Z,13.70
2019-05-20T22:23:36.212Z,13.60
2019-05-20T22:26:06.630Z,13.70
2019-05-20T22:28:36.956Z,13.60
2019-05-20T22:31:07.238Z,13.60
2019-05-20T22:33:41.262Z,13.50
2019-05-20T22:36:09.458Z,13.50
2019-05-20T22:38:39.719Z,13.40
2019-05-20T22:41:10.092Z,13.40
2019-05-20T22:43:40.349Z,13.40
2019-05-20T22:46:10.698Z,13.30
2019-05-20T22:48:50.234Z,13.20
2019-05-20T22:51:20.505Z,13.20
2019-05-20T22:53:50.794Z,13.10
2019-05-20T22:56:21.049Z,13.10
2019-05-20T22:58:51.318Z,13.00
2019-05-20T23:01:21.602Z,13.00
2019-05-20T23:03:56.455Z,13.00
2019-05-20T23:06:23.826Z,13.00
2019-05-20T23:08:54.109Z,13.00
2019-05-20T23:11:24.404Z,13.00
2019-05-20T23:13:54.663Z,12.90
2019-05-20T23:16:24.932Z,12.90
2019-05-20T23:18:55.243Z,12.80
2019-05-20T23:21:25.759Z,12.90
2019-05-20T23:23:56.030Z,12.90
2019-05-20T23:26:26.319Z,12.90
2019-05-20T23:28:56.632Z,12.90
2019-05-20T23:31:26.883Z,12.80
2019-05-20T23:34:11.655Z,12.80
2019-05-20T23:36:29.371Z,12.80
2019-05-20T23:38:59.641Z,12.70
2019-05-20T23:41:29.949Z,12.70
2019-05-20T23:44:00.229Z,12.60
2019-05-20T23:46:30.548Z,12.60
2019-05-20T23:49:00.827Z,12.60
2019-05-20T23:51:31.111Z,12.60
2019-05-20T23:54:01.410Z,12.60
2019-05-20T23:56:31.710Z,12.60
2019-05-20T23:59:02.737Z,12.50
